AirNav   Everest Fuels
 
 1036 users online  

86VA Newport News General Hospital Heliport
Newport News, Virginia, USA

GOING TO NEWPORT NEWS?


FAA INFORMATION EFFECTIVE 15 JULY 2021

Location

FAA Identifier: 86VA
Lat/Long: 36-59-59.5310N 076-25-28.8110W
36-59.992183N 076-25.480183W
36.9998697,-76.4246697
(estimated)
Elevation: 19 ft. / 6 m (estimated)
Variation: 10W (1990)
Time zone: UTC -4 (UTC -5 during Standard Time)
Zip code: 23605

Heliport Operations

Heliport use: Private use, MEDICAL USE.
Activation date: 02/1994
Control tower: no
ARTCC: WASHINGTON CENTER
FSS: LEESBURG FLIGHT SERVICE STATION
Attendance: UNATNDD
Wind indicator: yes
Segmented circle: no
Lights: FOR PERIMETER LGTS CALL 804-247-7200.

Heliport Communications

WX ASOS at PHF (9 nm N): PHONE 757-874-3682
WX ASOS at ORF (12 nm SE): PHONE 757-460-9348
WX AWOS-3PT at PVG (13 nm S): 118.375 (757-465-2175)

Nearby radio navigation aids

VOR radial/distance  VOR name  Freq  Var
ORFr308/12.6NORFOLK VORTAC116.9007W
CCVr234/29.2CAPE CHARLES VORTAC112.2010W
HCMr160/30.2HARCUM VORTAC108.8007W
FKNr068/33.0FRANKLIN VORTAC110.6009W
HPWr127/38.5HOPEWELL VORTAC112.0006W

 
NDB name  Hdg/Dist  Freq  Var  ID
INGLE328/12.732909WOR --- .-.
WAKEFIELD099/27.627411WAKQ .- -.- --.-

Heliport Services

Runway Information

Helipad H1

Dimensions: 30 x 30 ft. / 9 x 9 m
Surface: concrete
Runway edge lights: PERI
Latitude: 36-59.992183N
Longitude: 076-25.480183W
Elevation: 19.0 ft.
Traffic pattern: leftleft

Heliport Ownership and Management from official FAA records

Ownership: Privately-owned
Owner: NEWPORT NEWS GENERAL HOSP
5100 MARSHALL AVENUE
NEWPORT NEWS, VA 23605
Phone 804-247-7200
Manager: ROBERT A SHERRILL - ADMIN
5100 MARSHALL AVENUE
NEWPORT NEWS, VA 23605
Phone 804-247-7200

Additional Remarks

A52-H1 100 FT ANTENNA 2000 FT SE OF HELIPAD.
FOR CD CTC NORFOLK APCH AT 757-464-0757.

Instrument Procedures

There are no published instrument procedures at 86VA.

Some nearby airports with instrument procedures:

KLFI - Langley Air Force Base (6 nm NE)
KNHU - Norfolk Naval Station Airport (6 nm SE)
KNGU - Norfolk Naval Station (Chambers Field) (7 nm SE)
KPHF - Newport News/Williamsburg International Airport (9 nm N)
KFAF - Felker Army Airfield (12 nm NW)
KORF - Norfolk International Airport (12 nm SE)
KPVG - Hampton Roads Executive Airport (13 nm S)
 
Loc | Ops | Rwys | IFR | FBO | Links
Com | Nav | Svcs | Stats | Notes
Area around 86VA (Newport News General Hospital Heliport)
 
Road maps at: MapQuest Bing Google
 
Aerial photo
No photo
 
Sectional chart

 
Airport distance calculator
Flying to Newport News General Hospital Heliport? Find the distance to fly.

From to 86VA

Sunrise and sunset
Times for 25-Jul-2021
 Local
(UTC-4)
 Zulu
(UTC)
Morning civil twilight05:3709:37
Sunrise06:0610:06
Sunset20:1800:18
Evening civil twilight20:4700:47

Current date and time
Zulu (UTC)  26-Jul-2021 01:56:17
Local (UTC-4)  25-Jul-2021 21:56:17
 
METAR
KLFI 
5nm NE 
260056Z AUTO 19007KT 10SM SCT230 28/24 A2995 RMK AO2 SLP148 T02820235 $
KPHF 
9nm NW 
260103Z 20009KT 10SM FEW003 27/22 A2995 RMK AO2 T02720222
KNGU 
9nm SE 
260059Z 20007KT 10SM FEW180 BKN300 28/21 A2996 RMK AO2 SLP145 T02830206 $
KFAF 
12nm NW 
260056Z AUTO 21007KT 10SM CLR 28/22 A2993 RMK AO2 SLP139 T02800220 $
KORF 
12nm SE 
260051Z 20012KT 10SM CLR 29/21 A2994 RMK AO2 SLP140 T02890211
KPVG 
13nm S 
260056Z AUTO 18006KT 10SM CLR 26/22 A2996 RMK AO2 SLP148 T02610217 PNO $
TAF
KLFI 
5nm NE 
251700Z 2517/2623 21012G20KT 9999 SCT030 BKN150 QNH2990INS TEMPO 2517/2520 21015G25KT BECMG 2519/2520 23010G15KT 9999 SCT050 BKN080 QNH2989INS BECMG 2604/2605 19015KT 8000 -SHRA BKN050 QNH2985INS TEMPO 2607/2611 24015G25KT 3200 -TSRA BKN020CB BECMG 2615/2616 27012G18KT 6000 -SHRA VCTS BKN025CB QNH2980INS TEMPO 2617/2621 VRB15G25KT 1600 -TSRA BKN015CB TX31/2518Z TN22/2607Z
KPHF 
9nm NW 
260000Z 2600/2624 21007KT P6SM SCT040 FM261500 24011KT P6SM SCT060 FM261900 24009KT P6SM VCTS BKN050CB
KNGU 
9nm SE 
2523/2623 20010KT 9999 FEW030 SCT060 QNH2989INS BECMG 2605/2607 19013G23KT 9999 VCTS FEW035CB SCT060 QNH2990INS TEMPO 2607/2613 VRB15G25KT 3200 TSRA BR BKN020 BKN050 OVC100 TEMPO 2618/2622 VRB15G25KT 3200 TSRA BR BKN020 BKN050 OVC100 T30/2523Z T22/2610Z FN00231
KORF 
12nm SE 
260000Z 2600/2624 20016KT P6SM SCT040 FM260600 21010KT P6SM BKN080 FM261500 24010KT P6SM BKN060 FM262100 23008KT P6SM VCTS BKN050CB
NOTAMs
Click for the latest NOTAMs
NOTAMs are issued by the DoD/FAA and will open in a separate window not controlled by AirNav.

 

 
 

Would you like to see your business listed on this page?

 If your business provides an interesting product or service to pilots, flight crews, aircraft, or users of the Newport News General Hospital Heliport, you should consider listing it here.  To start the listing process, click on the button below
 
Add a business
 

Other Pages about Newport News General Hospital Heliport

Update a link
 
Copyright © AirNav, LLC. All rights reserved. Privacy Policy  Contact